sensor_id;sensor_type;location;lat;lon;timestamp;pressure;altitude;pressure_sealevel;temperature;humidity
13553;BME280;6847;48.830;9.116;2022-11-21T00:01:17;97133.41;;;8.85;66.92
13553;BME280;6847;48.830;9.116;2022-11-21T00:03:44;97127.47;;;8.88;67.20
13553;BME280;6847;48.830;9.116;2022-11-21T00:06:14;97065.25;;;8.46;67.49
13553;BME280;6847;48.830;9.116;2022-11-21T00:08:40;96990.06;;;8.05;67.52
13553;BME280;6847;48.830;9.116;2022-11-21T00:11:07;97127.19;;;8.90;66.90
13553;BME280;6847;48.830;9.116;2022-11-21T00:13:36;97053.19;;;8.38;67.07
13553;BME280;6847;48.830;9.116;2022-11-21T00:16:06;97107.31;;;8.76;67.08
13553;BME280;6847;48.830;9.116;2022-11-21T00:18:34;97070.91;;;8.44;67.74
13553;BME280;6847;48.830;9.116;2022-11-21T00:21:05;97106.34;;;8.67;67.24
13553;BME280;6847;48.830;9.116;2022-11-21T00:23:34;97107.94;;;8.68;67.56
13553;BME280;6847;48.830;9.116;2022-11-21T00:26:03;97090.72;;;8.64;67.31
13553;BME280;6847;48.830;9.116;2022-11-21T00:28:33;97113.28;;;8.73;67.34
13553;BME280;6847;48.830;9.116;2022-11-21T00:31:00;97103.03;;;8.75;67.70
13553;BME280;6847;48.830;9.116;2022-11-21T00:33:29;97109.75;;;8.77;67.15
13553;BME280;6847;48.830;9.116;2022-11-21T00:35:57;97093.56;;;8.77;67.46
13553;BME280;6847;48.830;9.116;2022-11-21T00:38:26;97094.91;;;8.75;67.11
13553;BME280;6847;48.830;9.116;2022-11-21T00:40:53;97052.03;;;8.44;67.40
13553;BME280;6847;48.830;9.116;2022-11-21T00:43:19;96929.75;;;7.67;66.89
13553;BME280;6847;48.830;9.116;2022-11-21T00:45:48;97072.19;;;8.52;67.54
13553;BME280;6847;48.830;9.116;2022-11-21T00:48:15;97088.34;;;8.57;67.65
13553;BME280;6847;48.830;9.116;2022-11-21T00:50:47;97061.28;;;8.38;67.22
13553;BME280;6847;48.830;9.116;2022-11-21T00:53:13;97073.63;;;8.44;67.00
13553;BME280;6847;48.830;9.116;2022-11-21T00:55:41;97066.66;;;8.38;66.99
13553;BME280;6847;48.830;9.116;2022-11-21T00:58:07;96915.22;;;7.34;67.17
13553;BME280;6847;48.830;9.116;2022-11-21T01:00:36;97049.53;;;8.19;67.39
13553;BME280;6847;48.830;9.116;2022-11-21T01:03:03;97052.25;;;8.14;67.15
13553;BME280;6847;48.830;9.116;2022-11-21T01:05:30;97073.19;;;8.32;67.20
13553;BME280;6847;48.830;9.116;2022-11-21T01:11:32;97073.19;;;8.27;67.22
13553;BME280;6847;48.830;9.116;2022-11-21T01:14:00;97050.38;;;8.14;67.39
13553;BME280;6847;48.830;9.116;2022-11-21T01:16:28;97067.28;;;8.25;67.57
13553;BME280;6847;48.830;9.116;2022-11-21T01:18:56;97062.50;;;8.17;67.13
13553;BME280;6847;48.830;9.116;2022-11-21T01:21:25;97066.81;;;8.13;67.41
13553;BME280;6847;48.830;9.116;2022-11-21T01:23:54;97050.25;;;7.96;67.61
13553;BME280;6847;48.830;9.116;2022-11-21T01:26:22;97064.47;;;8.06;67.41
13553;BME280;6847;48.830;9.116;2022-11-21T01:28:51;97076.91;;;8.02;67.72
13553;BME280;6847;48.830;9.116;2022-11-21T01:31:19;97070.44;;;7.98;67.43
13553;BME280;6847;48.830;9.116;2022-11-21T01:33:49;97075.09;;;7.93;67.85
13553;BME280;6847;48.830;9.116;2022-11-21T01:36:17;97078.59;;;7.88;67.55
13553;BME280;6847;48.830;9.116;2022-11-21T01:38:49;97071.88;;;7.86;68.16
13553;BME280;6847;48.830;9.116;2022-11-21T01:41:26;97053.94;;;7.71;68.79
13553;BME280;6847;48.830;9.116;2022-11-21T01:43:57;97065.50;;;7.71;69.25
13553;BME280;6847;48.830;9.116;2022-11-21T01:46:26;96822.81;;;6.12;69.51
13553;BME280;6847;48.830;9.116;2022-11-21T01:48:59;97064.78;;;7.56;69.82
13553;BME280;6847;48.830;9.116;2022-11-21T01:51:31;97019.41;;;7.29;69.96
13553;BME280;6847;48.830;9.116;2022-11-21T01:54:05;97062.41;;;7.49;70.82
13553;BME280;6847;48.830;9.116;2022-11-21T01:56:43;97059.97;;;7.48;70.90
13553;BME280;6847;48.830;9.116;2022-11-21T01:59:16;97054.59;;;7.48;71.23
13553;BME280;6847;48.830;9.116;2022-11-21T02:01:46;97027.50;;;7.29;71.51
13553;BME280;6847;48.830;9.116;2022-11-21T02:04:18;97057.56;;;7.46;71.83
13553;BME280;6847;48.830;9.116;2022-11-21T02:06:45;96978.13;;;6.99;71.86
13553;BME280;6847;48.830;9.116;2022-11-21T02:09:15;96951.00;;;6.86;72.29
13553;BME280;6847;48.830;9.116;2022-11-21T02:11:46;97041.38;;;7.51;72.08
13553;BME280;6847;48.830;9.116;2022-11-21T02:14:17;97030.13;;;7.44;72.39
13553;BME280;6847;48.830;9.116;2022-11-21T02:16:44;96983.94;;;7.17;72.10
13553;BME280;6847;48.830;9.116;2022-11-21T02:19:24;97046.50;;;7.53;72.37
13553;BME280;6847;48.830;9.116;2022-11-21T02:22:00;97026.91;;;7.42;72.21
13553;BME280;6847;48.830;9.116;2022-11-21T02:24:35;97050.78;;;7.59;72.66
13553;BME280;6847;48.830;9.116;2022-11-21T02:27:08;97051.56;;;7.59;72.70
13553;BME280;6847;48.830;9.116;2022-11-21T02:29:36;97049.41;;;7.61;72.31
13553;BME280;6847;48.830;9.116;2022-11-21T02:32:03;97048.59;;;7.61;72.51
13553;BME280;6847;48.830;9.116;2022-11-21T02:34:34;97032.72;;;7.54;72.72
13553;BME280;6847;48.830;9.116;2022-11-21T02:37:01;97026.38;;;7.40;72.51
13553;BME280;6847;48.830;9.116;2022-11-21T02:39:33;97039.25;;;7.48;72.46
13553;BME280;6847;48.830;9.116;2022-11-21T02:42:05;97039.28;;;7.43;72.69
13553;BME280;6847;48.830;9.116;2022-11-21T02:44:42;97044.69;;;7.38;72.58
13553;BME280;6847;48.830;9.116;2022-11-21T02:47:11;97036.66;;;7.33;72.74
13553;BME280;6847;48.830;9.116;2022-11-21T02:49:43;97029.66;;;7.32;72.99
13553;BME280;6847;48.830;9.116;2022-11-21T02:52:11;96889.06;;;6.37;72.95
13553;BME280;6847;48.830;9.116;2022-11-21T02:54:38;97026.38;;;7.35;72.73
13553;BME280;6847;48.830;9.116;2022-11-21T02:57:05;97015.09;;;7.33;73.13
13553;BME280;6847;48.830;9.116;2022-11-21T02:59:31;97015.09;;;7.33;72.86
13553;BME280;6847;48.830;9.116;2022-11-21T03:02:02;96878.28;;;6.47;73.01
13553;BME280;6847;48.830;9.116;2022-11-21T03:04:30;96918.03;;;6.65;72.96
13553;BME280;6847;48.830;9.116;2022-11-21T03:06:56;96975.97;;;7.01;72.77
13553;BME280;6847;48.830;9.116;2022-11-21T03:09:26;97008.72;;;7.19;72.76
13553;BME280;6847;48.830;9.116;2022-11-21T03:11:52;97000.91;;;7.17;73.04
13553;BME280;6847;48.830;9.116;2022-11-21T03:14:19;96998.47;;;7.16;73.09
13553;BME280;6847;48.830;9.116;2022-11-21T03:16:46;96997.97;;;7.14;72.95
13553;BME280;6847;48.830;9.116;2022-11-21T03:19:15;97000.66;;;7.14;73.14
13553;BME280;6847;48.830;9.116;2022-11-21T03:21:41;97000.09;;;7.17;73.64
13553;BME280;6847;48.830;9.116;2022-11-21T03:24:08;96999.00;;;7.23;73.17
13553;BME280;6847;48.830;9.116;2022-11-21T03:26:34;96996.28;;;7.28;73.48
13553;BME280;6847;48.830;9.116;2022-11-21T03:29:01;96994.91;;;7.30;73.23
13553;BME280;6847;48.830;9.116;2022-11-21T03:31:27;96999.47;;;7.35;73.42
13553;BME280;6847;48.830;9.116;2022-11-21T03:33:54;96998.38;;;7.41;73.54
13553;BME280;6847;48.830;9.116;2022-11-21T03:36:24;97002.63;;;7.47;73.60
13553;BME280;6847;48.830;9.116;2022-11-21T03:38:53;96991.78;;;7.57;73.53
13553;BME280;6847;48.830;9.116;2022-11-21T03:41:23;96991.75;;;7.62;73.64
13553;BME280;6847;48.830;9.116;2022-11-21T03:43:57;97000.31;;;7.69;73.64
13553;BME280;6847;48.830;9.116;2022-11-21T03:46:27;96996.50;;;7.75;73.54
13553;BME280;6847;48.830;9.116;2022-11-21T03:48:54;96989.44;;;7.85;73.37
13553;BME280;6847;48.830;9.116;2022-11-21T03:51:21;96964.75;;;7.72;73.45
13553;BME280;6847;48.830;9.116;2022-11-21T03:53:50;96995.31;;;7.92;73.60
13553;BME280;6847;48.830;9.116;2022-11-21T03:56:18;96998.50;;;7.94;73.57
13553;BME280;6847;48.830;9.116;2022-11-21T03:58:45;96990.97;;;7.96;73.75
13553;BME280;6847;48.830;9.116;2022-11-21T04:01:12;97002.00;;;7.99;73.88
13553;BME280;6847;48.830;9.116;2022-11-21T04:03:42;97002.78;;;8.00;73.43
13553;BME280;6847;48.830;9.116;2022-11-21T04:06:11;97003.59;;;8.00;73.85
13553;BME280;6847;48.830;9.116;2022-11-21T04:08:38;97003.59;;;8.00;73.92
13553;BME280;6847;48.830;9.116;2022-11-21T04:11:08;96982.94;;;7.91;73.64
13553;BME280;6847;48.830;9.116;2022-11-21T04:13:37;96995.78;;;7.99;74.04
13553;BME280;6847;48.830;9.116;2022-11-21T04:16:04;96991.22;;;7.99;73.80
13553;BME280;6847;48.830;9.116;2022-11-21T04:18:33;96984.22;;;7.98;73.70
13553;BME280;6847;48.830;9.116;2022-11-21T04:21:01;96990.41;;;7.99;73.92
13553;BME280;6847;48.830;9.116;2022-11-21T04:23:30;96992.00;;;8.00;73.78
13553;BME280;6847;48.830;9.116;2022-11-21T04:25:58;96997.41;;;8.00;73.89
13553;BME280;6847;48.830;9.116;2022-11-21T04:28:28;96979.38;;;7.95;74.11
13553;BME280;6847;48.830;9.116;2022-11-21T04:31:01;96992.47;;;8.07;73.99
13553;BME280;6847;48.830;9.116;2022-11-21T04:33:28;96992.22;;;8.08;74.11
13553;BME280;6847;48.830;9.116;2022-11-21T04:35:55;96993.00;;;8.09;74.01
13553;BME280;6847;48.830;9.116;2022-11-21T04:38:23;96989.22;;;8.10;73.82
13553;BME280;6847;48.830;9.116;2022-11-21T04:40:50;96993.00;;;8.09;73.70
13553;BME280;6847;48.830;9.116;2022-11-21T04:43:18;96986.28;;;8.06;74.02
13553;BME280;6847;48.830;9.116;2022-11-21T04:45:47;96990.59;;;8.07;74.04
13553;BME280;6847;48.830;9.116;2022-11-21T04:48:17;96983.03;;;8.09;74.02
13553;BME280;6847;48.830;9.116;2022-11-21T04:50:44;96989.75;;;8.12;74.22
13553;BME280;6847;48.830;9.116;2022-11-21T04:53:11;96985.91;;;8.18;74.23
13553;BME280;6847;48.830;9.116;2022-11-21T04:55:38;96990.69;;;8.26;74.15
13553;BME280;6847;48.830;9.116;2022-11-21T04:58:07;96993.38;;;8.31;73.85
13553;BME280;6847;48.830;9.116;2022-11-21T05:00:35;96986.03;;;8.37;73.88
13553;BME280;6847;48.830;9.116;2022-11-21T05:03:06;96993.28;;;8.41;73.86
13553;BME280;6847;48.830;9.116;2022-11-21T05:05:33;96992.47;;;8.41;73.51
13553;BME280;6847;48.830;9.116;2022-11-21T05:08:01;96997.56;;;8.42;73.56
13553;BME280;6847;48.830;9.116;2022-11-21T05:10:31;97002.19;;;8.42;73.89
13553;BME280;6847;48.830;9.116;2022-11-21T05:13:17;96989.47;;;8.42;73.84
13553;BME280;6847;48.830;9.116;2022-11-21T05:15:46;96984.09;;;8.42;73.82
13553;BME280;6847;48.830;9.116;2022-11-21T05:18:19;96984.69;;;8.39;73.73
13553;BME280;6847;48.830;9.116;2022-11-21T05:20:46;96991.72;;;8.35;73.71
13553;BME280;6847;48.830;9.116;2022-11-21T05:23:16;96968.19;;;8.12;73.92
13553;BME280;6847;48.830;9.116;2022-11-21T05:25:43;96976.22;;;8.17;74.20
13553;BME280;6847;48.830;9.116;2022-11-21T05:28:14;96988.38;;;8.14;73.90
13553;BME280;6847;48.830;9.116;2022-11-21T05:30:41;96992.22;;;8.03;73.87
13553;BME280;6847;48.830;9.116;2022-11-21T05:33:09;96996.34;;;7.96;73.84
13553;BME280;6847;48.830;9.116;2022-11-21T05:35:38;97000.19;;;7.90;74.17
13553;BME280;6847;48.830;9.116;2022-11-21T05:38:05;96988.34;;;7.86;74.26
13553;BME280;6847;48.830;9.116;2022-11-21T05:40:32;96999.91;;;7.91;74.33
13553;BME280;6847;48.830;9.116;2022-11-21T05:43:01;97006.28;;;8.00;74.62
13553;BME280;6847;48.830;9.116;2022-11-21T05:45:47;96933.06;;;7.59;74.48
13553;BME280;6847;48.830;9.116;2022-11-21T05:48:14;97007.53;;;8.13;74.62
13553;BME280;6847;48.830;9.116;2022-11-21T05:50:46;97002.13;;;8.13;74.82
13553;BME280;6847;48.830;9.116;2022-11-21T05:53:12;97017.28;;;8.09;74.47
13553;BME280;6847;48.830;9.116;2022-11-21T05:55:39;97008.75;;;7.97;74.42
13553;BME280;6847;48.830;9.116;2022-11-21T05:58:06;97015.66;;;8.08;74.74
13553;BME280;6847;48.830;9.116;2022-11-21T06:00:37;97012.91;;;8.13;74.55
13553;BME280;6847;48.830;9.116;2022-11-21T06:03:04;97008.03;;;8.20;74.52
13553;BME280;6847;48.830;9.116;2022-11-21T06:05:52;97007.97;;;8.25;74.80
13553;BME280;6847;48.830;9.116;2022-11-21T06:08:19;97010.91;;;8.29;74.62
13553;BME280;6847;48.830;9.116;2022-11-21T06:10:46;97004.19;;;8.31;74.32
13553;BME280;6847;48.830;9.116;2022-11-21T06:13:13;97006.81;;;8.36;74.38
13553;BME280;6847;48.830;9.116;2022-11-21T06:15:51;97011.06;;;8.42;74.48
13553;BME280;6847;48.830;9.116;2022-11-21T06:18:19;97006.38;;;8.53;75.32
13553;BME280;6847;48.830;9.116;2022-11-21T06:20:48;97013.63;;;8.58;74.82
13553;BME280;6847;48.830;9.116;2022-11-21T06:23:17;96947.13;;;8.14;74.35
13553;BME280;6847;48.830;9.116;2022-11-21T06:25:55;97016.84;;;8.60;74.62
13553;BME280;6847;48.830;9.116;2022-11-21T06:28:24;97002.81;;;8.58;74.47
13553;BME280;6847;48.830;9.116;2022-11-21T06:30:50;97017.81;;;8.69;74.88
13553;BME280;6847;48.830;9.116;2022-11-21T06:33:20;97016.72;;;8.70;74.76
13553;BME280;6847;48.830;9.116;2022-11-21T06:35:47;97016.13;;;8.73;74.65
13553;BME280;6847;48.830;9.116;2022-11-21T06:38:15;97018.84;;;8.73;74.87
13553;BME280;6847;48.830;9.116;2022-11-21T06:40:44;97019.38;;;8.75;74.38
13553;BME280;6847;48.830;9.116;2022-11-21T06:43:12;97019.88;;;8.77;74.70
13553;BME280;6847;48.830;9.116;2022-11-21T06:45:39;97007.56;;;8.71;74.64
13553;BME280;6847;48.830;9.116;2022-11-21T06:48:07;96993.00;;;8.67;74.44
13553;BME280;6847;48.830;9.116;2022-11-21T06:50:35;97023.03;;;8.84;74.71
13553;BME280;6847;48.830;9.116;2022-11-21T06:53:03;97030.31;;;8.83;74.47
13553;BME280;6847;48.830;9.116;2022-11-21T06:55:32;97039.22;;;8.84;74.98
13553;BME280;6847;48.830;9.116;2022-11-21T06:57:59;97029.03;;;8.81;74.33
13553;BME280;6847;48.830;9.116;2022-11-21T07:00:28;97027.47;;;8.75;74.70
13553;BME280;6847;48.830;9.116;2022-11-21T07:02:59;96999.59;;;8.56;74.50
13553;BME280;6847;48.830;9.116;2022-11-21T07:05:26;97031.78;;;8.76;74.45
13553;BME280;6847;48.830;9.116;2022-11-21T07:07:59;97035.44;;;8.85;74.23
13553;BME280;6847;48.830;9.116;2022-11-21T07:10:27;97024.66;;;8.85;74.10
13553;BME280;6847;48.830;9.116;2022-11-21T07:12:58;97027.63;;;8.83;74.31
13553;BME280;6847;48.830;9.116;2022-11-21T07:15:42;97033.16;;;8.97;73.86
13553;BME280;6847;48.830;9.116;2022-11-21T07:18:09;97028.66;;;9.11;73.12
13553;BME280;6847;48.830;9.116;2022-11-21T07:20:37;97023.97;;;9.97;71.54
13553;BME280;6847;48.830;9.116;2022-11-21T07:23:04;97031.84;;;10.91;69.11
13553;BME280;6847;48.830;9.116;2022-11-21T07:25:31;97028.31;;;11.31;69.16
13553;BME280;6847;48.830;9.116;2022-11-21T07:28:00;97026.63;;;11.85;67.88
13553;BME280;6847;48.830;9.116;2022-11-21T07:30:31;97022.19;;;12.56;66.34
13553;BME280;6847;48.830;9.116;2022-11-21T07:33:01;97023.31;;;12.94;65.36
13553;BME280;6847;48.830;9.116;2022-11-21T07:35:29;96969.50;;;13.05;64.66
13553;BME280;6847;48.830;9.116;2022-11-21T07:37:57;97020.13;;;13.32;64.79
13553;BME280;6847;48.830;9.116;2022-11-21T07:40:29;97019.22;;;12.44;66.58
13553;BME280;6847;48.830;9.116;2022-11-21T07:43:03;97015.59;;;12.79;66.61
13553;BME280;6847;48.830;9.116;2022-11-21T07:45:32;97014.13;;;13.61;64.89
13553;BME280;6847;48.830;9.116;2022-11-21T07:48:01;97011.06;;;13.06;64.75
13553;BME280;6847;48.830;9.116;2022-11-21T07:50:32;97024.59;;;12.57;66.71
13553;BME280;6847;48.830;9.116;2022-11-21T07:53:02;97020.00;;;13.37;65.34
13553;BME280;6847;48.830;9.116;2022-11-21T07:55:30;97023.75;;;14.44;63.38
13553;BME280;6847;48.830;9.116;2022-11-21T07:57:59;97027.78;;;15.32;61.63
13553;BME280;6847;48.830;9.116;2022-11-21T08:00:32;97016.75;;;15.78;60.83
13553;BME280;6847;48.830;9.116;2022-11-21T08:03:01;97036.91;;;16.48;60.14
13553;BME280;6847;48.830;9.116;2022-11-21T08:05:35;97029.81;;;17.01;59.09
13553;BME280;6847;48.830;9.116;2022-11-21T08:08:04;97041.09;;;17.48;57.80
13553;BME280;6847;48.830;9.116;2022-11-21T08:10:31;97039.88;;;17.82;56.84
13553;BME280;6847;48.830;9.116;2022-11-21T08:13:01;97050.59;;;18.55;55.31
13553;BME280;6847;48.830;9.116;2022-11-21T08:15:32;97039.84;;;19.21;54.27
13553;BME280;6847;48.830;9.116;2022-11-21T08:18:07;97038.47;;;19.94;53.49
13553;BME280;6847;48.830;9.116;2022-11-21T08:20:36;96985.78;;;20.27;52.65
13553;BME280;6847;48.830;9.116;2022-11-21T08:23:08;97034.44;;;21.49;51.04
13553;BME280;6847;48.830;9.116;2022-11-21T08:25:39;96984.38;;;21.70;50.70
13553;BME280;6847;48.830;9.116;2022-11-21T08:28:11;97031.03;;;22.72;49.57
13553;BME280;6847;48.830;9.116;2022-11-21T08:30:41;97035.09;;;23.22;48.36
13553;BME280;6847;48.830;9.116;2022-11-21T08:33:09;97036.19;;;23.54;47.82
13553;BME280;6847;48.830;9.116;2022-11-21T08:35:39;97037.19;;;23.83;47.35
13553;BME280;6847;48.830;9.116;2022-11-21T08:38:09;97039.78;;;24.17;47.38
13553;BME280;6847;48.830;9.116;2022-11-21T08:40:38;97034.34;;;24.31;47.07
13553;BME280;6847;48.830;9.116;2022-11-21T08:43:34;97028.47;;;24.36;47.22
13553;BME280;6847;48.830;9.116;2022-11-21T08:46:04;97033.69;;;24.55;47.08
13553;BME280;6847;48.830;9.116;2022-11-21T08:48:46;97027.66;;;24.39;47.07
13553;BME280;6847;48.830;9.116;2022-11-21T08:51:14;97025.75;;;24.50;47.54
13553;BME280;6847;48.830;9.116;2022-11-21T08:53:42;97025.66;;;24.32;47.65
13553;BME280;6847;48.830;9.116;2022-11-21T08:56:10;97031.16;;;24.22;47.89
13553;BME280;6847;48.830;9.116;2022-11-21T08:58:40;97016.97;;;24.34;48.23
13553;BME280;6847;48.830;9.116;2022-11-21T09:01:10;97027.84;;;24.02;48.55
13553;BME280;6847;48.830;9.116;2022-11-21T09:03:37;97015.00;;;23.73;48.97
13553;BME280;6847;48.830;9.116;2022-11-21T09:06:05;97011.97;;;23.88;49.50
13553;BME280;6847;48.830;9.116;2022-11-21T09:08:34;97011.94;;;23.85;49.08
13553;BME280;6847;48.830;9.116;2022-11-21T09:11:03;97008.06;;;24.00;49.27
13553;BME280;6847;48.830;9.116;2022-11-21T09:13:35;97007.19;;;23.78;49.51
13553;BME280;6847;48.830;9.116;2022-11-21T09:16:06;97005.94;;;23.72;49.86
13553;BME280;6847;48.830;9.116;2022-11-21T09:18:57;96988.47;;;23.13;49.98
13553;BME280;6847;48.830;9.116;2022-11-21T09:21:24;97001.81;;;23.04;50.66
13553;BME280;6847;48.830;9.116;2022-11-21T09:23:54;97001.03;;;23.07;51.14
13553;BME280;6847;48.830;9.116;2022-11-21T09:26:23;96994.47;;;22.82;51.96
13553;BME280;6847;48.830;9.116;2022-11-21T09:28:51;96992.91;;;22.81;52.81
13553;BME280;6847;48.830;9.116;2022-11-21T09:31:18;96997.50;;;22.70;53.26
13553;BME280;6847;48.830;9.116;2022-11-21T09:33:45;96982.91;;;22.36;54.19
13553;BME280;6847;48.830;9.116;2022-11-21T09:36:17;96989.84;;;21.66;55.51
13553;BME280;6847;48.830;9.116;2022-11-21T09:38:44;96995.78;;;20.54;57.38
13553;BME280;6847;48.830;9.116;2022-11-21T09:41:17;97002.75;;;19.43;58.92
13553;BME280;6847;48.830;9.116;2022-11-21T09:44:11;96997.03;;;19.17;60.06
13553;BME280;6847;48.830;9.116;2022-11-21T09:46:45;96972.31;;;19.17;60.10
13553;BME280;6847;48.830;9.116;2022-11-21T09:49:13;97003.72;;;19.51;60.42
13553;BME280;6847;48.830;9.116;2022-11-21T09:51:52;96997.34;;;19.47;60.45
13553;BME280;6847;48.830;9.116;2022-11-21T09:54:47;96988.25;;;19.58;60.48
13553;BME280;6847;48.830;9.116;2022-11-21T09:57:17;96982.97;;;19.69;61.00
13553;BME280;6847;48.830;9.116;2022-11-21T09:59:47;96979.47;;;19.88;60.78
13553;BME280;6847;48.830;9.116;2022-11-21T10:02:18;96971.44;;;19.13;60.96
13553;BME280;6847;48.830;9.116;2022-11-21T10:04:46;96956.78;;;18.46;62.37
13553;BME280;6847;48.830;9.116;2022-11-21T10:07:20;96949.22;;;18.71;62.46
13553;BME280;6847;48.830;9.116;2022-11-21T10:10:02;96923.91;;;19.25;62.51
13553;BME280;6847;48.830;9.116;2022-11-21T10:12:35;96953.69;;;19.57;61.39
13553;BME280;6847;48.830;9.116;2022-11-21T10:15:30;96951.59;;;19.70;61.39
13553;BME280;6847;48.830;9.116;2022-11-21T10:21:14;96936.31;;;20.27;61.30
13553;BME280;6847;48.830;9.116;2022-11-21T10:23:59;96933.28;;;20.74;61.23
13553;BME280;6847;48.830;9.116;2022-11-21T10:26:40;96914.38;;;21.18;60.83
13553;BME280;6847;48.830;9.116;2022-11-21T10:29:15;96909.34;;;22.10;60.04
13553;BME280;6847;48.830;9.116;2022-11-21T10:31:47;96911.25;;;22.39;59.34
13553;BME280;6847;48.830;9.116;2022-11-21T10:34:19;96891.81;;;21.95;59.52
13553;BME280;6847;48.830;9.116;2022-11-21T10:36:52;96909.75;;;21.52;59.78
13553;BME280;6847;48.830;9.116;2022-11-21T10:39:36;96904.94;;;21.19;60.55
13553;BME280;6847;48.830;9.116;2022-11-21T10:42:12;96900.50;;;20.43;60.64
13553;BME280;6847;48.830;9.116;2022-11-21T10:44:42;96886.75;;;20.23;61.16
13553;BME280;6847;48.830;9.116;2022-11-21T10:47:32;96883.31;;;20.07;61.25
13553;BME280;6847;48.830;9.116;2022-11-21T10:50:05;96886.50;;;19.36;60.32
13553;BME280;6847;48.830;9.116;2022-11-21T10:52:43;96879.81;;;18.23;61.56
13553;BME280;6847;48.830;9.116;2022-11-21T10:55:17;96877.41;;;17.26;61.92
13553;BME280;6847;48.830;9.116;2022-11-21T10:57:45;96872.31;;;16.51;62.96
13553;BME280;6847;48.830;9.116;2022-11-21T11:00:19;96857.13;;;16.17;63.73
13553;BME280;6847;48.830;9.116;2022-11-21T11:03:15;96854.28;;;15.81;64.00
13553;BME280;6847;48.830;9.116;2022-11-21T11:05:53;96859.25;;;15.46;64.25
13553;BME280;6847;48.830;9.116;2022-11-21T11:08:26;96847.00;;;15.10;64.41
13553;BME280;6847;48.830;9.116;2022-11-21T11:11:04;96842.03;;;14.83;65.11
13553;BME280;6847;48.830;9.116;2022-11-21T11:13:34;96833.00;;;14.91;65.24
13553;BME280;6847;48.830;9.116;2022-11-21T11:16:21;96830.91;;;15.17;64.67
13553;BME280;6847;48.830;9.116;2022-11-21T11:18:55;96820.19;;;15.12;64.45
13553;BME280;6847;48.830;9.116;2022-11-21T11:21:41;96808.41;;;15.41;64.58
13553;BME280;6847;48.830;9.116;2022-11-21T11:24:22;96817.25;;;15.92;64.37
13553;BME280;6847;48.830;9.116;2022-11-21T11:26:57;96804.47;;;16.41;63.96
13553;BME280;6847;48.830;9.116;2022-11-21T11:29:28;96799.94;;;16.70;63.52
13553;BME280;6847;48.830;9.116;2022-11-21T11:31:59;96796.53;;;16.73;63.48
13553;BME280;6847;48.830;9.116;2022-11-21T11:34:37;96787.81;;;16.95;63.39
13553;BME280;6847;48.830;9.116;2022-11-21T11:37:11;96794.97;;;16.99;63.52
13553;BME280;6847;48.830;9.116;2022-11-21T11:39:45;96758.81;;;17.18;63.75
13553;BME280;6847;48.830;9.116;2022-11-21T11:42:48;96774.84;;;17.32;63.05
13553;BME280;6847;48.830;9.116;2022-11-21T11:45:55;96782.22;;;17.04;63.10
13553;BME280;6847;48.830;9.116;2022-11-21T11:48:51;96775.53;;;16.77;62.13
13553;BME280;6847;48.830;9.116;2022-11-21T11:51:23;96773.97;;;16.51;62.21
13553;BME280;6847;48.830;9.116;2022-11-21T11:53:54;96764.38;;;16.09;62.01
13553;BME280;6847;48.830;9.116;2022-11-21T11:56:28;96762.44;;;15.85;62.43
13553;BME280;6847;48.830;9.116;2022-11-21T11:59:03;96758.34;;;15.91;62.55
13553;BME280;6847;48.830;9.116;2022-11-21T12:01:36;96755.94;;;15.89;62.66
13553;BME280;6847;48.830;9.116;2022-11-21T12:04:13;96758.22;;;15.75;62.27
13553;BME280;6847;48.830;9.116;2022-11-21T12:06:45;96707.72;;;15.36;62.67
13553;BME280;6847;48.830;9.116;2022-11-21T12:09:22;96748.41;;;15.62;62.67
13553;BME280;6847;48.830;9.116;2022-11-21T12:11:55;96740.00;;;15.79;62.55
13553;BME280;6847;48.830;9.116;2022-11-21T12:14:56;96734.56;;;15.91;62.30
13553;BME280;6847;48.830;9.116;2022-11-21T12:17:50;96740.03;;;15.91;62.03
13553;BME280;6847;48.830;9.116;2022-11-21T12:20:24;96730.03;;;15.96;61.59
13553;BME280;6847;48.830;9.116;2022-11-21T12:22:55;96731.97;;;16.07;61.67
13553;BME280;6847;48.830;9.116;2022-11-21T12:25:28;96725.03;;;16.10;61.34
13553;BME280;6847;48.830;9.116;2022-11-21T12:27:56;96717.72;;;16.26;61.34
13553;BME280;6847;48.830;9.116;2022-11-21T12:30:42;96708.59;;;16.58;60.86
13553;BME280;6847;48.830;9.116;2022-11-21T12:33:19;96707.25;;;16.64;60.74
13553;BME280;6847;48.830;9.116;2022-11-21T12:35:57;96714.53;;;16.48;60.38
13553;BME280;6847;48.830;9.116;2022-11-21T12:38:47;96701.13;;;16.19;59.90
13553;BME280;6847;48.830;9.116;2022-11-21T12:41:27;96678.63;;;16.10;59.77
13553;BME280;6847;48.830;9.116;2022-11-21T12:44:20;96652.66;;;16.16;59.45
13553;BME280;6847;48.830;9.116;2022-11-21T12:47:12;96670.56;;;16.65;58.84
13553;BME280;6847;48.830;9.116;2022-11-21T12:49:49;96677.94;;;17.05;57.85
13553;BME280;6847;48.830;9.116;2022-11-21T12:52:39;96676.97;;;16.97;58.32
13553;BME280;6847;48.830;9.116;2022-11-21T12:55:31;96663.94;;;17.07;58.13
13553;BME280;6847;48.830;9.116;2022-11-21T12:58:14;96648.44;;;17.26;57.65
13553;BME280;6847;48.830;9.116;2022-11-21T13:01:01;96649.38;;;17.46;56.85
13553;BME280;6847;48.830;9.116;2022-11-21T13:03:44;96646.97;;;17.45;56.99
13553;BME280;6847;48.830;9.116;2022-11-21T13:06:16;96619.34;;;17.34;nan
13553;BME280;6847;48.830;9.116;2022-11-21T13:08:48;96602.06;;;17.30;56.83
13553;BME280;6847;48.830;9.116;2022-11-21T13:11:28;96623.88;;;17.89;56.84
13553;BME280;6847;48.830;9.116;2022-11-21T13:14:19;96615.78;;;18.47;55.97
13553;BME280;6847;48.830;9.116;2022-11-21T13:16:57;96620.88;;;18.64;55.48
13553;BME280;6847;48.830;9.116;2022-11-21T13:19:47;96601.69;;;18.64;55.15
13553;BME280;6847;48.830;9.116;2022-11-21T13:22:57;96608.97;;;18.76;55.37
13553;BME280;6847;48.830;9.116;2022-11-21T13:25:42;96608.88;;;18.92;55.36
13553;BME280;6847;48.830;9.116;2022-11-21T13:28:45;96610.00;;;19.29;54.63
13553;BME280;6847;48.830;9.116;2022-11-21T13:31:31;96600.72;;;19.37;54.31
13553;BME280;6847;48.830;9.116;2022-11-21T13:34:01;96588.59;;;19.38;54.30
13553;BME280;6847;48.830;9.116;2022-11-21T13:36:39;96586.47;;;19.51;54.23
13553;BME280;6847;48.830;9.116;2022-11-21T13:39:35;96575.03;;;19.26;54.24
13553;BME280;6847;48.830;9.116;2022-11-21T13:42:12;96549.88;;;18.78;54.04
13553;BME280;6847;48.830;9.116;2022-11-21T13:44:58;96554.34;;;18.29;54.21
13553;BME280;6847;48.830;9.116;2022-11-21T13:48:34;96572.13;;;17.84;54.70
13553;BME280;6847;48.830;9.116;2022-11-21T13:51:47;96568.78;;;17.44;54.67
13553;BME280;6847;48.830;9.116;2022-11-21T13:54:36;96576.47;;;16.79;54.59